Time;durP1;ratioP1;P1;durP2;ratioP2;P2;SDS_P1;SDS_P2;PMS_P1;PMS_P2;Temp;Humidity;BMP_temperature;BMP_pressure;BME280_temperature;BME280_humidity;BME280_pressure;Samples;Min_cycle;Max_cycle;Signal;HPM_P1;HPM_P2
2024/01/16 00:02:08;;;;;;;4.53;2.53;;;0.10;99.90;;;;;;5052770;28;20178;-81
2024/01/16 00:04:35;;;;;;;5.70;2.37;;;0.10;99.90;;;;;;5053205;28;20224;-81
2024/01/16 00:07:01;;;;;;;6.07;2.27;;;0.10;99.90;;;;;;5053085;28;20638;-81
2024/01/16 00:09:27;;;;;;;4.77;2.33;;;0.20;77.00;;;;;;5052813;28;20185;-80
2024/01/16 00:11:52;;;;;;;4.00;2.57;;;0.20;74.20;;;;;;5052607;28;20205;-81
2024/01/16 00:14:18;;;;;;;3.80;2.37;;;0.20;86.00;;;;;;5051818;28;20190;-81
2024/01/16 00:16:47;;;;;;;6.30;2.50;;;0.20;81.10;;;;;;5051530;28;20316;-81
2024/01/16 00:19:13;;;;;;;7.90;2.50;;;0.20;90.30;;;;;;5052954;28;20664;-81
2024/01/16 00:21:40;;;;;;;4.43;2.80;;;0.20;59.00;;;;;;5052321;28;20174;-81
2024/01/16 00:24:06;;;;;;;6.40;2.53;;;0.10;99.90;;;;;;5052547;28;20225;-81
2024/01/16 00:26:32;;;;;;;4.53;2.50;;;0.20;99.90;;;;;;5051383;28;20243;-81
2024/01/16 00:28:58;;;;;;;3.93;2.63;;;0.10;93.10;;;;;;5052885;28;20173;-81
2024/01/16 00:31:23;;;;;;;4.27;2.37;;;0.10;99.90;;;;;;5051113;28;20174;-81
2024/01/16 00:33:49;;;;;;;8.33;2.20;;;0.10;99.90;;;;;;5052853;28;20564;-81
2024/01/16 00:36:14;;;;;;;5.03;2.07;;;0.10;99.90;;;;;;5051523;28;20246;-81
2024/01/16 00:38:40;;;;;;;3.63;2.23;;;0.10;90.00;;;;;;5052542;28;20174;-81
2024/01/16 00:41:06;;;;;;;5.57;2.60;;;0.10;86.40;;;;;;5050426;28;20177;-81
2024/01/16 00:43:32;;;;;;;3.43;2.40;;;0.10;90.00;;;;;;5051435;28;20197;-81
2024/01/16 00:45:58;;;;;;;4.17;2.23;;;0.10;98.20;;;;;;5051223;28;20177;-81
2024/01/16 00:48:24;;;;;;;5.20;2.50;;;0.10;99.90;;;;;;5051557;28;20185;-81
2024/01/16 00:50:49;;;;;;;2.30;2.10;;;0.10;99.90;;;;;;5052035;28;20263;-81
2024/01/16 00:53:18;;;;;;;4.97;2.50;;;0.00;99.90;;;;;;5051011;28;20206;-81
2024/01/16 00:55:44;;;;;;;4.43;2.20;;;0.10;99.90;;;;;;5052151;28;20166;-81
2024/01/16 00:58:09;;;;;;;5.03;2.33;;;0.10;99.90;;;;;;5052526;28;20201;-81
2024/01/16 01:00:37;;;;;;;3.83;1.97;;;0.10;99.90;;;;;;5050562;28;20563;-81
2024/01/16 01:03:03;;;;;;;3.17;2.17;;;0.20;23.90;;;;;;5052380;28;20223;-81
2024/01/16 01:05:29;;;;;;;3.57;2.20;;;0.10;1.00;;;;;;5052306;28;20248;-81
2024/01/16 01:07:58;;;;;;;5.77;2.13;;;0.20;18.80;;;;;;5052357;28;20264;-81
2024/01/16 01:10:24;;;;;;;4.30;2.30;;;0.20;5.50;;;;;;5054670;28;20576;-81
2024/01/16 01:12:50;;;;;;;2.93;2.33;;;0.20;19.20;;;;;;5056437;28;20180;-81
2024/01/16 01:15:16;;;;;;;2.80;1.70;;;0.20;17.90;;;;;;5056512;28;20610;-81
2024/01/16 01:17:41;;;;;;;3.83;2.20;;;0.20;1.00;;;;;;5056425;28;20757;-81
2024/01/16 01:20:08;;;;;;;4.33;2.23;;;0.10;1.00;;;;;;5055427;28;20247;-81
2024/01/16 01:22:34;;;;;;;4.37;1.90;;;0.20;1.00;;;;;;5056354;28;20170;-82
2024/01/16 01:24:59;;;;;;;5.17;2.50;;;0.10;23.80;;;;;;5055909;28;20201;-80
2024/01/16 01:27:25;;;;;;;4.60;2.13;;;0.10;26.00;;;;;;5056044;28;20524;-81
2024/01/16 01:29:51;;;;;;;6.50;2.50;;;0.10;4.70;;;;;;5054831;28;20170;-81
2024/01/16 01:32:16;;;;;;;3.30;2.37;;;0.10;16.80;;;;;;5055882;28;20264;-82
2024/01/16 01:34:42;;;;;;;4.30;2.60;;;0.10;45.50;;;;;;5054653;28;20549;-82
2024/01/16 01:37:08;;;;;;;2.67;2.10;;;0.10;27.00;;;;;;5055976;28;20200;-81
2024/01/16 01:39:33;;;;;;;3.00;2.03;;;0.00;1.00;;;;;;5055687;28;20256;-81
2024/01/16 01:41:59;;;;;;;3.67;1.50;;;0.10;1.00;;;;;;5054237;28;20181;-81
2024/01/16 01:44:25;;;;;;;4.53;2.20;;;0.10;1.00;;;;;;5055746;28;20284;-81
2024/01/16 01:46:54;;;;;;;3.17;2.30;;;0.10;1.00;;;;;;5055561;28;20178;-81
2024/01/16 01:49:20;;;;;;;3.57;2.00;;;0.10;1.00;;;;;;5054054;28;20178;-81
2024/01/16 01:51:45;;;;;;;3.90;1.90;;;0.20;1.00;;;;;;5053760;28;20268;-81
2024/01/16 01:54:12;;;;;;;3.77;1.80;;;0.10;1.00;;;;;;5053968;28;20304;-81
2024/01/16 01:56:38;;;;;;;3.60;2.10;;;0.10;1.00;;;;;;5055770;28;20201;-81
2024/01/16 01:59:05;;;;;;;4.13;2.07;;;0.10;1.00;;;;;;5054271;28;20170;-81
2024/01/16 02:01:31;;;;;;;4.93;2.23;;;0.10;1.00;;;;;;5055178;28;20176;-82
2024/01/16 02:03:59;;;;;;;4.17;2.33;;;0.10;1.00;;;;;;5055425;28;20196;-82
2024/01/16 02:06:24;;;;;;;6.37;2.67;;;0.00;29.30;;;;;;5054209;28;20200;-81
2024/01/16 02:08:51;;;;;;;4.40;2.33;;;0.00;49.70;;;;;;5053896;28;20646;-81
2024/01/16 02:11:16;;;;;;;5.03;2.40;;;0.00;66.70;;;;;;5054682;28;20169;-81
2024/01/16 02:13:42;;;;;;;4.73;2.30;;;0.00;55.70;;;;;;5053730;28;20200;-81
2024/01/16 02:16:26;;;;;;;3.63;2.40;;;0.00;48.60;;;;;;5053902;28;20223;-81
2024/01/16 02:18:52;;;;;;;2.87;1.90;;;0.00;51.60;;;;;;5053904;28;20200;-81
2024/01/16 02:21:21;;;;;;;3.53;2.40;;;0.00;45.70;;;;;;5052907;28;20669;-81
2024/01/16 02:23:47;;;;;;;3.17;2.50;;;0.00;99.90;;;;;;5054840;28;20186;-81
2024/01/16 02:26:17;;;;;;;3.70;2.30;;;0.00;99.90;;;;;;5055130;28;20165;-81
2024/01/16 02:28:42;;;;;;;4.37;2.43;;;0.00;99.90;;;;;;5054915;28;20303;-81
2024/01/16 02:31:08;;;;;;;4.77;2.43;;;-0.10;99.90;;;;;;5053364;28;20273;-81
2024/01/16 02:33:34;;;;;;;5.47;2.77;;;-0.10;99.90;;;;;;5053402;28;20197;-81
2024/01/16 02:36:00;;;;;;;4.00;2.50;;;-0.10;99.90;;;;;;5053752;28;20264;-81
2024/01/16 02:38:25;;;;;;;4.23;2.57;;;-0.10;99.90;;;;;;5054569;28;20578;-81
2024/01/16 02:40:51;;;;;;;8.27;2.57;;;-0.10;99.90;;;;;;5052730;28;20284;-81
2024/01/16 02:43:16;;;;;;;4.23;2.60;;;-0.10;99.90;;;;;;5053303;28;20186;-81
2024/01/16 02:45:42;;;;;;;3.63;2.27;;;-0.20;99.90;;;;;;5053190;28;20173;-81
2024/01/16 02:48:08;;;;;;;4.83;2.57;;;-0.20;99.90;;;;;;5053387;28;20170;-81
2024/01/16 02:50:34;;;;;;;6.37;2.70;;;-0.20;99.90;;;;;;5052505;28;20234;-81
2024/01/16 02:52:59;;;;;;;4.53;2.33;;;-0.20;99.90;;;;;;5054342;28;20174;-81
2024/01/16 02:55:25;;;;;;;5.47;2.30;;;-0.30;99.90;;;;;;5053243;28;20267;-82
2024/01/16 02:57:50;;;;;;;5.27;1.77;;;-0.30;99.90;;;;;;5054520;28;20212;-81
2024/01/16 03:00:17;;;;;;;3.90;2.13;;;-0.30;99.90;;;;;;5052505;28;20227;-81
2024/01/16 03:02:43;;;;;;;4.17;2.20;;;-0.30;99.90;;;;;;5054272;28;20170;-81
2024/01/16 03:05:09;;;;;;;4.00;2.53;;;-0.30;99.90;;;;;;5052653;28;20191;-81
2024/01/16 03:07:35;;;;;;;4.37;2.30;;;-0.30;99.90;;;;;;5053256;28;20178;-81
2024/01/16 03:10:01;;;;;;;3.93;2.10;;;-0.30;99.90;;;;;;5052631;28;20264;-81
2024/01/16 03:12:26;;;;;;;3.03;2.03;;;-0.30;99.90;;;;;;5052940;28;20524;-81
2024/01/16 03:14:53;;;;;;;3.90;2.13;;;-0.40;99.90;;;;;;5053900;28;20197;-80
2024/01/16 03:17:19;;;;;;;4.33;1.90;;;-0.40;99.90;;;;;;5052965;28;20205;-82
2024/01/16 03:19:44;;;;;;;5.83;2.23;;;-0.40;99.90;;;;;;5053797;28;20177;-81
2024/01/16 03:22:10;;;;;;;7.17;2.70;;;-0.40;99.90;;;;;;5052293;28;20177;-81
2024/01/16 03:24:35;;;;;;;4.70;2.47;;;-0.30;99.90;;;;;;5053827;28;20701;-81
2024/01/16 03:27:01;;;;;;;4.60;2.37;;;-0.30;99.90;;;;;;5053812;28;20182;-81
2024/01/16 03:29:27;;;;;;;4.53;2.60;;;-0.30;99.90;;;;;;5052429;28;20182;-82
2024/01/16 03:31:53;;;;;;;4.47;2.60;;;-0.30;99.90;;;;;;5052846;28;20178;-81
2024/01/16 03:34:19;;;;;;;5.73;2.60;;;-0.30;99.90;;;;;;5052457;28;20236;-81
2024/01/16 03:36:44;;;;;;;6.20;3.00;;;-0.20;99.90;;;;;;5052419;28;20201;-81
2024/01/16 03:39:10;;;;;;;5.23;2.40;;;-0.20;99.90;;;;;;5052474;28;20241;-81
2024/01/16 03:41:37;;;;;;;6.53;2.90;;;-0.20;99.90;;;;;;5053219;28;20192;-81
2024/01/16 03:44:03;;;;;;;6.90;2.80;;;-0.20;99.90;;;;;;5053627;28;20594;-81
2024/01/16 03:46:29;;;;;;;7.00;3.00;;;-0.20;99.90;;;;;;5052492;28;20549;-81
2024/01/16 03:48:54;;;;;;;6.07;3.17;;;-0.30;99.90;;;;;;5053370;28;20166;-81
2024/01/16 03:51:20;;;;;;;4.43;2.67;;;-0.30;99.90;;;;;;5051827;28;20207;-81
2024/01/16 03:53:46;;;;;;;4.93;2.90;;;-0.30;99.90;;;;;;5053192;28;20224;-81
2024/01/16 03:56:12;;;;;;;4.20;2.50;;;-0.30;99.90;;;;;;5052117;28;20170;-81
2024/01/16 03:58:39;;;;;;;5.03;3.13;;;-0.30;99.90;;;;;;5052219;28;20229;-81
2024/01/16 04:01:05;;;;;;;5.03;2.97;;;-0.30;99.90;;;;;;5052779;28;20192;-81
2024/01/16 04:03:34;;;;;;;3.93;2.67;;;-0.30;99.90;;;;;;5051815;28;20298;-82
2024/01/16 04:06:00;;;;;;;5.73;3.00;;;-0.30;99.90;;;;;;5052995;28;20158;-81
2024/01/16 04:08:26;;;;;;;4.80;2.93;;;-0.30;99.90;;;;;;5053203;28;20199;-81
2024/01/16 04:10:51;;;;;;;6.03;3.10;;;-0.40;99.90;;;;;;5051360;28;20183;-82
2024/01/16 04:13:17;;;;;;;6.33;3.33;;;-0.40;99.90;;;;;;5051739;28;20244;-81
2024/01/16 04:15:43;;;;;;;7.07;3.30;;;-0.40;99.90;;;;;;5051640;28;20182;-81
2024/01/16 04:18:09;;;;;;;6.30;3.50;;;-0.50;99.90;;;;;;5052720;28;20689;-81
2024/01/16 04:20:35;;;;;;;6.07;3.50;;;-0.50;99.90;;;;;;5051166;28;20181;-81
2024/01/16 04:23:01;;;;;;;5.20;3.33;;;-0.60;99.90;;;;;;5052952;28;20169;-82
2024/01/16 04:25:26;;;;;;;4.50;3.20;;;-0.70;99.90;;;;;;5052906;28;20174;-81
2024/01/16 04:27:52;;;;;;;6.03;3.40;;;-0.70;99.90;;;;;;5053004;28;20189;-81
2024/01/16 04:30:20;;;;;;;7.60;3.53;;;-0.80;99.90;;;;;;5051251;28;20211;-81
2024/01/16 04:32:45;;;;;;;6.37;3.73;;;-0.90;99.90;;;;;;5051383;28;20181;-81
2024/01/16 04:35:11;;;;;;;5.20;3.53;;;-0.80;99.90;;;;;;5051513;28;20187;-80
2024/01/16 04:37:36;;;;;;;5.87;3.60;;;-0.80;99.90;;;;;;5052534;28;20205;-81
2024/01/16 04:40:02;;;;;;;7.77;3.93;;;-0.80;99.90;;;;;;5052256;28;20181;-78
2024/01/16 04:42:28;;;;;;;6.47;4.23;;;-0.80;99.90;;;;;;5051400;28;20264;-81
2024/01/16 04:44:54;;;;;;;7.87;3.87;;;-0.90;99.90;;;;;;5051502;28;20204;-81
2024/01/16 04:47:19;;;;;;;6.43;3.63;;;-0.80;99.90;;;;;;5051368;28;20260;-81
2024/01/16 04:49:45;;;;;;;10.03;4.33;;;-0.80;99.90;;;;;;5052440;28;20277;-81
2024/01/16 04:52:10;;;;;;;5.53;3.67;;;-0.80;99.90;;;;;;5051365;28;20185;-82
2024/01/16 04:54:36;;;;;;;7.83;4.40;;;-0.70;99.90;;;;;;5052839;28;20243;-82
2024/01/16 04:57:01;;;;;;;9.43;4.47;;;-0.70;99.90;;;;;;5052333;28;20196;-82
2024/01/16 04:59:27;;;;;;;7.43;4.20;;;-0.80;99.90;;;;;;5051222;28;20206;-82
2024/01/16 05:01:53;;;;;;;8.67;4.60;;;-0.80;99.90;;;;;;5051317;28;20656;-82
2024/01/16 05:04:18;;;;;;;9.10;4.07;;;-0.90;99.90;;;;;;5051178;28;20253;-82
2024/01/16 05:06:44;;;;;;;7.30;4.30;;;-0.90;99.90;;;;;;5053259;28;20184;-82
2024/01/16 05:09:09;;;;;;;6.37;4.43;;;-1.00;99.90;;;;;;5051891;28;20169;-80
2024/01/16 05:11:35;;;;;;;7.07;4.27;;;-1.00;99.90;;;;;;5051604;28;20216;-83
2024/01/16 05:14:01;;;;;;;7.03;4.13;;;-1.10;99.90;;;;;;5052014;28;20196;-82
2024/01/16 05:16:27;;;;;;;9.13;5.07;;;-1.10;99.90;;;;;;5051010;28;20255;-82
2024/01/16 05:18:53;;;;;;;6.93;4.10;;;-1.10;99.90;;;;;;5050873;28;20172;-84
2024/01/16 05:21:19;;;;;;;6.00;4.10;;;-1.10;99.90;;;;;;5051534;28;20177;-82
2024/01/16 05:23:45;;;;;;;7.27;4.67;;;-1.10;99.90;;;;;;5051016;28;20207;-82
2024/01/16 05:26:10;;;;;;;7.13;4.27;;;-1.10;99.90;;;;;;5052282;28;20183;-82
2024/01/16 05:28:36;;;;;;;6.97;4.37;;;-1.10;99.90;;;;;;5050949;28;20262;-82
2024/01/16 05:31:02;;;;;;;10.07;4.70;;;-1.20;99.90;;;;;;5050372;28;20181;-82
2024/01/16 05:33:28;;;;;;;8.40;5.10;;;-1.20;99.90;;;;;;5051035;28;20254;-83
2024/01/16 05:35:53;;;;;;;11.00;5.33;;;-1.20;99.90;;;;;;5050774;28;20181;-82
2024/01/16 05:38:19;;;;;;;9.10;4.70;;;-1.10;99.90;;;;;;5050722;28;20303;-82
2024/01/16 05:40:44;;;;;;;9.27;5.10;;;-1.10;99.90;;;;;;5051248;28;20176;-82
2024/01/16 05:43:10;;;;;;;9.13;5.00;;;-1.10;99.90;;;;;;5050659;28;20196;-82
2024/01/16 05:45:35;;;;;;;9.07;5.40;;;-1.10;99.90;;;;;;5050909;28;20722;-82
2024/01/16 05:48:01;;;;;;;8.57;5.53;;;-1.10;99.90;;;;;;5052189;28;20177;-82
2024/01/16 05:50:26;;;;;;;10.93;5.70;;;-1.00;99.90;;;;;;5049902;28;20196;-82
2024/01/16 05:52:52;;;;;;;10.13;5.57;;;-1.10;99.90;;;;;;5051862;28;20184;-83
2024/01/16 05:55:18;;;;;;;9.53;5.90;;;-1.10;99.90;;;;;;5051911;28;20177;-82
2024/01/16 05:57:43;;;;;;;9.17;5.70;;;-1.20;99.90;;;;;;5055603;28;20212;-82
2024/01/16 06:00:10;;;;;;;11.50;6.03;;;-1.20;99.90;;;;;;5055159;28;20208;-82
2024/01/16 06:02:35;;;;;;;10.30;5.70;;;-1.20;99.90;;;;;;5054236;28;20180;-82
2024/01/16 06:05:02;;;;;;;10.67;6.30;;;-1.30;99.90;;;;;;5054148;28;20189;-82
2024/01/16 06:07:28;;;;;;;9.30;5.90;;;-1.30;99.90;;;;;;5056358;28;20169;-84
2024/01/16 06:09:53;;;;;;;9.37;5.37;;;-1.30;99.90;;;;;;5054485;28;20283;-82
2024/01/16 06:12:19;;;;;;;9.13;6.00;;;-1.20;99.90;;;;;;5053923;28;20265;-82
2024/01/16 06:14:44;;;;;;;9.33;5.50;;;-1.20;99.90;;;;;;5053979;28;20200;-82
2024/01/16 06:17:10;;;;;;;9.03;5.50;;;-1.10;99.90;;;;;;5054208;28;20563;-83
2024/01/16 06:19:35;;;;;;;7.97;5.63;;;-1.10;99.90;;;;;;5055038;28;20710;-82
2024/01/16 06:22:01;;;;;;;8.87;6.00;;;-1.10;99.90;;;;;;5053754;28;20672;-82
2024/01/16 06:24:27;;;;;;;8.50;5.37;;;-1.10;99.90;;;;;;5055178;28;20281;-82
2024/01/16 06:26:53;;;;;;;9.97;5.90;;;-1.10;99.90;;;;;;5053981;28;20187;-81
2024/01/16 06:29:18;;;;;;;8.37;5.33;;;-1.10;99.90;;;;;;5055015;28;20180;-78
2024/01/16 06:31:44;;;;;;;9.10;5.40;;;-0.70;99.90;;;;;;5053722;28;20184;-80
2024/01/16 06:34:09;;;;;;;8.10;5.23;;;-0.50;99.90;;;;;;5053710;28;20197;-83
2024/01/16 06:36:35;;;;;;;9.83;4.93;;;-0.20;99.90;;;;;;5053382;28;20177;-82
2024/01/16 06:39:00;;;;;;;8.10;5.43;;;0.00;99.90;;;;;;5053247;28;20261;-82
2024/01/16 06:41:26;;;;;;;6.83;4.57;;;0.20;99.90;;;;;;5054352;28;20252;-83
2024/01/16 06:43:51;;;;;;;8.13;4.73;;;0.10;99.90;;;;;;5053080;28;20244;-84
2024/01/16 06:46:17;;;;;;;7.73;4.70;;;-0.10;99.90;;;;;;5053540;28;20192;-83
2024/01/16 06:48:42;;;;;;;7.73;5.13;;;-0.30;99.90;;;;;;5053749;28;20177;-84
2024/01/16 06:51:10;;;;;;;8.17;5.00;;;-0.50;99.90;;;;;;5052933;28;20185;-83
2024/01/16 06:53:36;;;;;;;6.87;5.03;;;-0.60;99.90;;;;;;5054576;28;20217;-84
2024/01/16 06:56:03;;;;;;;9.97;5.23;;;-0.70;99.90;;;;;;5053386;28;20205;-85
2024/01/16 06:58:28;;;;;;;10.63;6.07;;;-0.70;99.90;;;;;;5054178;28;20208;-84
2024/01/16 07:00:54;;;;;;;9.40;5.80;;;-0.80;99.90;;;;;;5052891;28;20174;-84
2024/01/16 07:03:19;;;;;;;9.60;5.43;;;-0.90;99.90;;;;;;5054190;28;20201;-84
2024/01/16 07:05:45;;;;;;;8.70;5.73;;;-0.90;99.90;;;;;;5053213;28;20231;-84
2024/01/16 07:08:11;;;;;;;7.07;5.27;;;-0.90;99.90;;;;;;5052060;28;20174;-84
2024/01/16 07:10:36;;;;;;;8.47;5.30;;;-0.90;99.90;;;;;;5053438;28;20177;-84
2024/01/16 07:13:02;;;;;;;10.27;5.83;;;-0.90;99.90;;;;;;5053664;28;20204;-84
2024/01/16 07:15:28;;;;;;;12.27;5.97;;;-0.90;99.90;;;;;;5054179;28;20178;-84
2024/01/16 07:17:53;;;;;;;11.20;6.20;;;-1.00;99.90;;;;;;5054201;28;20293;-84
2024/01/16 07:20:19;;;;;;;12.53;6.13;;;-0.90;99.90;;;;;;5053384;28;20545;-84
2024/01/16 07:22:45;;;;;;;10.40;5.73;;;-0.90;99.90;;;;;;5052604;28;20173;-83
2024/01/16 07:25:11;;;;;;;14.70;7.50;;;-0.90;99.90;;;;;;5052538;28;20264;-82
2024/01/16 07:27:36;;;;;;;13.93;6.63;;;-1.00;99.90;;;;;;5052821;28;20180;-84
2024/01/16 07:30:04;;;;;;;9.53;6.23;;;-1.00;99.90;;;;;;5052544;28;20185;-84
2024/01/16 07:32:31;;;;;;;11.47;6.10;;;-1.00;99.90;;;;;;5053445;28;20622;-84
2024/01/16 07:34:57;;;;;;;9.07;5.93;;;-1.00;99.90;;;;;;5053778;28;20202;-84
2024/01/16 07:37:22;;;;;;;12.13;6.50;;;-0.90;99.90;;;;;;5053851;28;20580;-84
2024/01/16 07:39:48;;;;;;;11.23;6.93;;;-1.00;99.90;;;;;;5053829;28;20178;-84
2024/01/16 07:42:14;;;;;;;13.33;7.70;;;-1.10;99.90;;;;;;5053612;28;20173;-84
2024/01/16 07:44:39;;;;;;;12.40;8.60;;;-1.10;99.90;;;;;;5053007;28;20197;-84
2024/01/16 07:47:05;;;;;;;13.67;8.13;;;-1.10;99.90;;;;;;5053854;28;20173;-84
2024/01/16 07:49:31;;;;;;;13.17;8.20;;;-1.20;99.90;;;;;;5051791;28;20181;-84
2024/01/16 07:51:56;;;;;;;11.53;5.90;;;-1.10;99.90;;;;;;5051599;28;20215;-84
2024/01/16 07:54:22;;;;;;;10.03;6.70;;;-1.10;99.90;;;;;;5053267;28;20243;-82
2024/01/16 07:56:47;;;;;;;10.83;7.37;;;-1.00;99.90;;;;;;5051602;28;20180;-82
2024/01/16 07:59:14;;;;;;;11.33;6.80;;;-1.00;99.90;;;;;;5051836;28;20204;-83
2024/01/16 08:01:39;;;;;;;10.53;6.60;;;-0.90;99.90;;;;;;5052647;28;20181;-82
2024/01/16 08:04:05;;;;;;;9.37;6.50;;;-0.80;99.90;;;;;;5053168;28;20192;-82
2024/01/16 08:06:31;;;;;;;8.37;5.97;;;-0.80;99.90;;;;;;5051660;28;20545;-82
2024/01/16 08:08:56;;;;;;;11.80;7.13;;;-0.80;99.90;;;;;;5052941;28;20281;-82
2024/01/16 08:11:22;;;;;;;11.00;6.63;;;-0.70;99.90;;;;;;5052305;28;20208;-82
2024/01/16 08:13:47;;;;;;;11.87;6.90;;;-0.70;99.90;;;;;;5052788;28;20227;-82
2024/01/16 08:16:13;;;;;;;10.00;5.83;;;-0.60;99.90;;;;;;5052904;28;20177;-82
2024/01/16 08:18:39;;;;;;;9.70;5.50;;;-0.60;99.90;;;;;;5051396;28;20276;-82
2024/01/16 08:21:04;;;;;;;9.60;5.60;;;-0.60;99.90;;;;;;5050887;28;20170;-87
2024/01/16 08:23:30;;;;;;;10.57;6.37;;;-0.50;99.90;;;;;;5052377;28;20197;-87
2024/01/16 08:25:55;;;;;;;6.83;5.37;;;-0.40;99.90;;;;;;5051058;28;20177;-85
2024/01/16 08:28:24;;;;;;;8.07;5.43;;;-0.40;99.90;;;;;;5052516;28;20181;-83
2024/01/16 08:30:49;;;;;;;9.30;5.73;;;-0.30;99.90;;;;;;5052032;28;20263;-83
2024/01/16 08:33:15;;;;;;;8.53;5.87;;;-0.20;99.90;;;;;;5052611;28;20221;-82
2024/01/16 08:35:41;;;;;;;11.00;5.50;;;-0.20;99.90;;;;;;5052611;28;20174;-83
2024/01/16 08:38:06;;;;;;;11.63;5.30;;;-0.20;99.90;;;;;;5052957;28;20292;-83
2024/01/16 08:40:32;;;;;;;10.07;5.17;;;-0.20;99.90;;;;;;5051843;28;20739;-81
2024/01/16 08:42:58;;;;;;;10.67;5.70;;;-0.40;99.90;;;;;;5052437;28;20665;-82
2024/01/16 08:45:24;;;;;;;7.67;5.23;;;-0.40;99.90;;;;;;5050977;28;20173;-83
2024/01/16 08:47:50;;;;;;;7.57;4.80;;;-0.40;99.90;;;;;;5052468;28;20549;-82
2024/01/16 08:50:16;;;;;;;9.40;6.07;;;-0.30;99.90;;;;;;5051601;28;20181;-89
2024/01/16 08:52:41;;;;;;;11.17;5.50;;;-0.30;99.90;;;;;;5050961;28;20592;-87
2024/01/16 08:55:08;;;;;;;9.33;5.67;;;-0.20;99.90;;;;;;5052231;28;20213;-82
2024/01/16 08:57:34;;;;;;;7.83;5.43;;;-0.10;99.90;;;;;;5051082;28;20585;-84
2024/01/16 09:00:00;;;;;;;8.67;5.07;;;-0.10;99.90;;;;;;5052308;28;20172;-85
2024/01/16 09:02:28;;;;;;;10.50;6.00;;;-0.30;99.90;;;;;;5052250;28;20166;-85
2024/01/16 09:04:54;;;;;;;8.77;5.50;;;-0.40;99.90;;;;;;5051016;28;20197;-83
2024/01/16 09:07:20;;;;;;;9.80;5.40;;;-0.60;99.90;;;;;;5050903;28;20181;-83
2024/01/16 09:09:46;;;;;;;9.87;5.40;;;-0.70;99.90;;;;;;5051771;28;20235;-83
2024/01/16 09:12:12;;;;;;;7.90;5.30;;;-0.70;99.90;;;;;;5050677;28;20180;-83
2024/01/16 09:14:37;;;;;;;10.40;5.60;;;-0.80;99.90;;;;;;5052178;28;20238;-84
2024/01/16 09:17:03;;;;;;;10.00;5.37;;;-0.90;99.90;;;;;;5050817;28;20209;-83
2024/01/16 09:19:29;;;;;;;8.40;5.97;;;-0.80;99.90;;;;;;5051856;28;20249;-83
2024/01/16 09:21:55;;;;;;;10.63;5.53;;;-0.80;99.90;;;;;;5051804;28;20176;-83
2024/01/16 09:24:21;;;;;;;8.20;5.50;;;-0.80;99.90;;;;;;5050560;28;20192;-83
2024/01/16 09:26:46;;;;;;;10.00;5.63;;;-0.70;99.90;;;;;;5052099;28;20180;-83
2024/01/16 09:29:14;;;;;;;9.93;6.20;;;-0.70;99.90;;;;;;5050570;28;20180;-84
2024/01/16 09:31:40;;;;;;;13.13;6.27;;;-0.60;99.90;;;;;;5053973;28;20796;-83
2024/01/16 09:34:05;;;;;;;13.07;6.80;;;-0.70;99.90;;;;;;5055652;28;20227;-83
2024/01/16 09:36:31;;;;;;;10.40;6.23;;;-0.80;99.90;;;;;;5055923;28;20172;-83
2024/01/16 09:38:57;;;;;;;10.23;6.20;;;-0.80;99.90;;;;;;5055655;28;20208;-84
2024/01/16 09:41:23;;;;;;;11.90;5.80;;;-0.80;99.90;;;;;;5054459;28;20219;-84
2024/01/16 09:43:51;;;;;;;12.87;6.80;;;-0.80;99.90;;;;;;5056082;28;20674;-84
2024/01/16 09:46:19;;;;;;;12.33;6.20;;;-0.80;99.90;;;;;;5055936;28;20196;-84
2024/01/16 09:48:47;;;;;;;11.47;6.37;;;-0.90;99.90;;;;;;5055716;28;20171;-84
2024/01/16 09:51:14;;;;;;;13.63;6.87;;;-0.80;99.90;;;;;;5053881;28;20685;-83
2024/01/16 09:53:41;;;;;;;13.33;6.70;;;-0.90;99.90;;;;;;5055773;28;20205;-85
2024/01/16 09:56:15;;;;;;;10.57;6.80;;;-0.70;99.90;;;;;;5055783;28;20181;-85
2024/01/16 09:58:40;;;;;;;9.47;6.47;;;-0.50;99.90;;;;;;5055967;28;20256;-86
2024/01/16 10:01:06;;;;;;;10.37;5.90;;;-0.40;99.90;;;;;;5055337;28;20732;-85
2024/01/16 10:03:34;;;;;;;10.27;6.43;;;-0.40;99.90;;;;;;5054127;28;20250;-85
2024/01/16 10:06:04;;;;;;;9.80;6.10;;;-0.40;99.90;;;;;;5053944;28;20173;-85
2024/01/16 10:08:31;;;;;;;13.57;6.10;;;-0.40;99.90;;;;;;5055449;28;20183;-85
2024/01/16 10:10:57;;;;;;;11.37;6.73;;;-0.30;99.90;;;;;;5053357;28;20849;-85
2024/01/16 10:13:23;;;;;;;9.17;6.00;;;-0.40;99.90;;;;;;5055263;28;20216;-85
2024/01/16 10:15:52;;;;;;;7.87;5.87;;;-0.50;99.90;;;;;;5053639;28;20661;-85
2024/01/16 10:18:25;;;;;;;11.37;5.97;;;-0.50;99.90;;;;;;5053639;28;20278;-85
2024/01/16 10:20:52;;;;;;;9.47;5.87;;;-0.40;99.90;;;;;;5054414;28;20210;-82
2024/01/16 10:23:28;;;;;;;9.27;5.87;;;-0.30;99.90;;;;;;5053786;28;20762;-84
2024/01/16 10:26:13;;;;;;;9.83;5.80;;;-0.20;99.90;;;;;;5055004;28;20182;-85
2024/01/16 10:28:41;;;;;;;10.00;5.90;;;-0.30;99.90;;;;;;5053633;28;20184;-84
2024/01/16 10:31:11;;;;;;;13.50;6.13;;;-0.30;99.90;;;;;;5054679;28;20314;-84
2024/01/16 10:33:39;;;;;;;8.37;5.63;;;-0.20;99.90;;;;;;5053798;28;20204;-84
2024/01/16 10:36:12;;;;;;;10.13;5.90;;;-0.20;95.80;;;;;;5054956;28;20256;-84
2024/01/16 10:38:43;;;;;;;10.70;5.97;;;-0.20;41.90;;;;;;5054901;28;20231;-84
2024/01/16 10:41:18;;;;;;;7.70;6.17;;;-0.10;87.70;;;;;;5053251;28;20176;-84
2024/01/16 10:43:44;;;;;;;10.00;6.17;;;-0.10;52.90;;;;;;5053232;28;20196;-88
2024/01/16 10:46:15;;;;;;;8.43;6.20;;;-0.10;1.00;;;;;;5054753;28;20253;-84
2024/01/16 10:49:00;;;;;;;8.90;5.97;;;-0.10;57.50;;;;;;5053569;28;20174;-85
2024/01/16 10:51:27;;;;;;;8.47;5.33;;;0.00;76.80;;;;;;5052502;28;20681;-83
2024/01/16 10:53:58;;;;;;;8.23;5.73;;;0.10;6.30;;;;;;5055032;28;20224;-85
2024/01/16 10:56:27;;;;;;;9.47;5.83;;;0.10;4.80;;;;;;5054332;28;20688;-84
2024/01/16 10:58:57;;;;;;;9.13;5.50;;;-0.10;1.00;;;;;;5052908;28;20205;-85
2024/01/16 11:01:24;;;;;;;10.27;5.83;;;-0.20;9.10;;;;;;5052699;28;20649;-86
2024/01/16 11:03:52;;;;;;;10.03;5.10;;;-0.30;99.90;;;;;;5055112;28;20201;-84
2024/01/16 11:06:18;;;;;;;8.30;5.33;;;-0.40;99.90;;;;;;5054292;28;20356;-84
2024/01/16 11:08:48;;;;;;;11.23;5.60;;;-0.40;99.90;;;;;;5054021;28;20591;-86
2024/01/16 11:11:14;;;;;;;10.17;5.40;;;-0.30;99.90;;;;;;5053608;28;20173;-86
2024/01/16 11:13:44;;;;;;;10.43;5.50;;;-0.30;90.10;;;;;;5054108;28;20280;-84
2024/01/16 11:16:11;;;;;;;12.83;5.77;;;-0.30;99.90;;;;;;5053853;28;20234;-80
2024/01/16 11:18:37;;;;;;;10.27;5.37;;;-0.40;99.30;;;;;;5053866;28;20201;-83
2024/01/16 11:21:05;;;;;;;10.33;5.43;;;-0.20;99.90;;;;;;5052265;28;20182;-82
2024/01/16 11:23:31;;;;;;;7.77;5.50;;;-0.10;18.70;;;;;;5053779;28;20196;-87
2024/01/16 11:25:57;;;;;;;8.40;5.37;;;-0.10;18.80;;;;;;5052642;28;20264;-88
2024/01/16 11:28:29;;;;;;;8.20;5.37;;;-0.20;27.10;;;;;;5052608;28;20177;-85
2024/01/16 11:30:55;;;;;;;8.90;5.83;;;-0.20;10.40;;;;;;5051773;28;20241;-85
2024/01/16 11:33:32;;;;;;;10.30;5.67;;;-0.30;25.60;;;;;;5053341;28;20204;-83
2024/01/16 11:35:58;;;;;;;10.07;5.47;;;-0.20;28.30;;;;;;5052454;28;20216;-83
2024/01/16 11:38:26;;;;;;;9.33;5.47;;;-0.20;1.00;;;;;;5052402;28;20248;-83
2024/01/16 11:40:56;;;;;;;12.03;6.43;;;-0.10;1.00;;;;;;5051592;28;20179;-83
2024/01/16 11:43:33;;;;;;;7.83;5.30;;;-0.20;1.00;;;;;;5053459;28;20202;-82
2024/01/16 11:46:04;;;;;;;9.97;5.73;;;-0.10;4.90;;;;;;5052011;28;20181;-81
2024/01/16 11:48:29;;;;;;;11.37;5.80;;;-0.10;1.00;;;;;;5053607;28;20263;-81
2024/01/16 11:50:55;;;;;;;8.87;5.97;;;0.00;1.00;;;;;;5051406;28;20210;-81
2024/01/16 11:53:30;;;;;;;7.97;5.53;;;0.00;1.00;;;;;;5051381;28;20228;-82
2024/01/16 11:56:18;;;;;;;557.33;134.30;;;0.00;1.00;;;;;;5051939;28;20227;-81
2024/01/16 11:59:28;;;;;;;50.60;17.47;;;0.70;99.90;;;;;;5053373;28;20259;-82
2024/01/16 12:01:58;;;;;;;234.73;57.37;;;1.00;99.90;;;;;;5050987;28;20169;-84
2024/01/16 12:04:23;;;;;;;9.70;5.90;;;3.20;99.90;;;;;;5050990;28;20191;-83
2024/01/16 12:06:58;;;;;;;10.57;5.27;;;2.80;1.00;;;;;;5051819;28;20189;-81
2024/01/16 12:09:27;;;;;;;8.30;5.37;;;2.00;99.90;;;;;;5051343;28;20549;-81
2024/01/16 12:12:03;;;;;;;9.23;5.47;;;1.20;99.90;;;;;;5052587;28;20178;-81
2024/01/16 12:14:29;;;;;;;10.60;6.30;;;0.70;99.90;;;;;;5052981;28;20197;-82
2024/01/16 12:17:15;;;;;;;8.20;5.77;;;0.40;99.90;;;;;;5052590;28;20174;-82
2024/01/16 12:19:41;;;;;;;10.90;7.20;;;0.30;1.00;;;;;;5052641;28;20176;-82
2024/01/16 12:22:13;;;;;;;9.83;6.00;;;0.20;1.00;;;;;;5052181;28;20715;-82
2024/01/16 12:24:39;;;;;;;9.13;6.00;;;0.20;1.00;;;;;;5051273;28;20189;-82
2024/01/16 12:27:05;;;;;;;11.90;5.70;;;0.30;1.00;;;;;;5052674;28;20181;-84
2024/01/16 12:29:32;;;;;;;9.90;5.80;;;0.20;1.00;;;;;;5050966;28;20176;-81
2024/01/16 12:32:10;;;;;;;8.70;5.83;;;0.30;1.00;;;;;;5050886;28;20177;-81
2024/01/16 12:34:47;;;;;;;8.43;5.73;;;0.40;1.00;;;;;;5052472;28;20247;-81
2024/01/16 12:37:13;;;;;;;9.30;6.30;;;0.50;1.00;;;;;;5053568;28;20193;-82
2024/01/16 12:39:41;;;;;;;8.00;5.27;;;0.40;1.00;;;;;;5051471;28;20181;-81
2024/01/16 12:42:09;;;;;;;9.30;5.47;;;0.30;1.00;;;;;;5051946;28;20177;-81
2024/01/16 12:44:35;;;;;;;7.77;5.43;;;0.30;1.00;;;;;;5050988;28;20204;-81
2024/01/16 12:47:02;;;;;;;9.60;5.87;;;0.30;1.00;;;;;;5052441;28;20166;-82